createdAt,value
2022-08-25T00:03:29.756Z,5.22
2022-08-25T00:07:37.926Z,5.07
2022-08-25T00:11:40.502Z,7.72
2022-08-25T00:15:42.317Z,6.03
2022-08-25T00:19:44.014Z,10.38
2022-08-25T00:23:46.567Z,4.90
2022-08-25T00:27:48.628Z,5.75
2022-08-25T00:31:50.433Z,6.80
2022-08-25T00:35:52.805Z,6.78
2022-08-25T00:39:57.039Z,9.25
2022-08-25T00:44:00.988Z,6.55
2022-08-25T00:48:03.169Z,6.32
2022-08-25T00:52:10.622Z,9.60
2022-08-25T00:56:14.188Z,7.72
2022-08-25T01:00:19.298Z,6.13
2022-08-25T01:04:22.181Z,9.15
2022-08-25T01:08:27.527Z,5.78
2022-08-25T01:12:30.959Z,6.63
2022-08-25T01:16:38.137Z,7.95
2022-08-25T01:20:40.386Z,7.35
2022-08-25T01:25:07.667Z,10.90
2022-08-25T01:29:22.450Z,7.00
2022-08-25T01:33:24.371Z,8.93
2022-08-25T01:37:26.097Z,10.57
2022-08-25T01:41:31.536Z,8.15
2022-08-25T01:45:38.496Z,10.13
2022-08-25T01:49:40.730Z,8.07
2022-08-25T01:53:44.132Z,11.90
2022-08-25T01:57:46.264Z,8.55
2022-08-25T02:01:48.019Z,8.23
2022-08-25T02:05:49.786Z,6.97
2022-08-25T02:09:51.501Z,6.88
2022-08-25T02:13:53.417Z,9.50
2022-08-25T02:17:55.134Z,8.07
2022-08-25T02:21:58.136Z,6.78
2022-08-25T02:25:59.828Z,6.65
2022-08-25T02:30:01.852Z,8.23
2022-08-25T02:34:04.654Z,8.73
2022-08-25T02:38:07.221Z,6.40
2022-08-25T02:42:09.078Z,7.15
2022-08-25T02:46:12.411Z,8.60
2022-08-25T02:50:14.565Z,7.13
2022-08-25T02:54:16.548Z,7.18
2022-08-25T02:58:18.494Z,12.45
2022-08-25T03:02:20.397Z,6.40
2022-08-25T03:06:25.425Z,12.75
2022-08-25T03:10:27.492Z,10.00
2022-08-25T03:14:30.226Z,7.43
2022-08-25T03:18:32.467Z,6.97
2022-08-25T03:22:34.267Z,7.75
2022-08-25T03:26:54.039Z,6.97
2022-08-25T03:30:55.906Z,10.52
2022-08-25T03:34:58.450Z,8.05
2022-08-25T03:39:00.566Z,8.25
2022-08-25T03:43:02.587Z,7.50
2022-08-25T03:47:04.501Z,9.07
2022-08-25T03:51:06.407Z,7.47
2022-08-25T03:55:10.807Z,8.70
2022-08-25T03:59:12.864Z,9.00
2022-08-25T04:03:14.682Z,7.32
2022-08-25T04:07:16.797Z,10.68
2022-08-25T04:11:22.240Z,9.15
2022-08-25T04:15:28.087Z,8.80
2022-08-25T04:19:32.045Z,8.90
2022-08-25T04:23:33.779Z,11.73
2022-08-25T04:27:37.243Z,8.38
2022-08-25T04:31:41.762Z,7.25
2022-08-25T04:35:50.628Z,10.77
2022-08-25T04:39:52.972Z,10.52
2022-08-25T04:43:59.113Z,10.45
2022-08-25T04:48:00.941Z,8.57
2022-08-25T04:52:03.261Z,7.80
2022-08-25T04:56:08.251Z,10.27
2022-08-25T05:00:11.407Z,9.90
2022-08-25T05:04:27.886Z,10.73
2022-08-25T05:08:32.129Z,11.48
2022-08-25T05:12:34.337Z,8.15
2022-08-25T05:16:38.372Z,10.52
2022-08-25T05:20:40.206Z,10.13
2022-08-25T05:24:42.016Z,8.18
2022-08-25T05:28:43.853Z,10.45
2022-08-25T05:32:45.553Z,8.40
2022-08-25T05:36:48.537Z,11.60
2022-08-25T05:40:57.936Z,8.75
2022-08-25T05:44:59.871Z,15.55
2022-08-25T05:49:01.961Z,11.35
2022-08-25T05:53:03.709Z,10.35
2022-08-25T05:57:06.098Z,15.77
2022-08-25T06:01:27.402Z,10.18
2022-08-25T06:05:29.626Z,15.05
2022-08-25T06:09:31.461Z,11.02
2022-08-25T06:13:33.626Z,12.68
2022-08-25T06:17:35.471Z,9.55
2022-08-25T06:21:40.826Z,13.75
2022-08-25T06:25:49.773Z,10.65
2022-08-25T06:29:51.479Z,12.70
2022-08-25T06:33:58.676Z,14.27
2022-08-25T06:38:00.543Z,16.90
2022-08-25T06:42:02.291Z,16.52
2022-08-25T06:46:13.369Z,14.02
2022-08-25T06:50:15.892Z,14.20
2022-08-25T06:54:17.650Z,17.52
2022-08-25T06:58:19.362Z,14.85
2022-08-25T07:02:21.999Z,17.42
2022-08-25T07:06:25.636Z,14.02
2022-08-25T07:10:27.352Z,14.85
2022-08-25T07:14:32.414Z,14.77
2022-08-25T07:18:34.655Z,13.82
2022-08-25T07:22:36.371Z,16.13
2022-08-25T07:26:42.054Z,14.05
2022-08-25T07:30:43.938Z,13.05
2022-08-25T07:35:04.359Z,13.38
2022-08-25T07:39:06.811Z,13.52
2022-08-25T07:43:08.772Z,14.05
2022-08-25T07:47:10.683Z,14.85
2022-08-25T07:51:14.529Z,11.93
2022-08-25T07:55:17.985Z,15.98
2022-08-25T07:59:19.808Z,14.23
2022-08-25T08:03:42.281Z,14.45
2022-08-25T08:07:44.478Z,11.38
2022-08-25T08:11:53.931Z,13.07
2022-08-25T08:15:56.263Z,12.05
2022-08-25T08:19:59.095Z,12.23
2022-08-25T08:24:01.479Z,12.25
2022-08-25T08:28:03.527Z,12.10
2022-08-25T08:32:09.099Z,12.10
2022-08-25T08:36:12.469Z,15.38
2022-08-25T08:40:18.327Z,12.68
2022-08-25T08:44:37.016Z,11.57
2022-08-25T08:48:52.449Z,12.40
2022-08-25T08:53:03.067Z,11.48
2022-08-25T08:57:16.605Z,13.93
2022-08-25T09:01:29.356Z,13.18
2022-08-25T09:05:41.849Z,11.25
2022-08-25T09:09:46.334Z,11.05
2022-08-25T09:14:15.335Z,11.48
2022-08-25T09:18:50.834Z,9.73
2022-08-25T09:23:10.959Z,11.02
2022-08-25T09:27:35.459Z,10.52
2022-08-25T09:31:39.287Z,9.43
2022-08-25T09:35:41.765Z,12.23
2022-08-25T09:39:43.507Z,9.50
2022-08-25T09:43:53.613Z,11.82
2022-08-25T09:47:55.285Z,14.52
2022-08-25T09:52:26.368Z,11.00
2022-08-25T09:56:34.530Z,9.43
2022-08-25T10:00:36.828Z,9.77
2022-08-25T10:04:40.590Z,8.73
2022-08-25T10:08:45.265Z,9.85
2022-08-25T10:12:51.352Z,9.93
2022-08-25T10:17:10.895Z,10.10
2022-08-25T10:21:15.962Z,9.32
2022-08-25T10:25:28.082Z,12.05
2022-08-25T10:30:07.325Z,12.85
2022-08-25T10:34:22.514Z,7.68
2022-08-25T10:38:43.782Z,12.25
2022-08-25T10:43:10.714Z,12.23
2022-08-25T10:47:27.410Z,8.18
2022-08-25T10:51:46.745Z,10.45
2022-08-25T10:56:03.210Z,9.18
2022-08-25T11:00:16.281Z,6.82
2022-08-25T11:04:48.807Z,10.07
2022-08-25T11:08:55.508Z,5.90
2022-08-25T11:13:00.897Z,8.73
2022-08-25T11:17:21.956Z,6.88
2022-08-25T11:21:36.408Z,9.30
2022-08-25T11:25:42.909Z,7.30
2022-08-25T11:29:49.233Z,8.05
2022-08-25T11:33:52.581Z,7.60
2022-08-25T11:38:18.854Z,6.93
2022-08-25T11:42:25.888Z,7.47
2022-08-25T11:46:42.619Z,7.20
2022-08-25T11:51:33.856Z,7.88
2022-08-25T11:55:38.298Z,6.72
2022-08-25T12:00:07.338Z,9.20
2022-08-25T12:04:30.949Z,8.60
2022-08-25T12:08:48.531Z,7.00
2022-08-25T12:13:04.814Z,11.90
2022-08-25T12:17:36.722Z,7.68
2022-08-25T12:21:38.463Z,7.38
2022-08-25T12:25:47.109Z,8.90
2022-08-25T12:29:52.178Z,11.80
2022-08-25T12:34:17.268Z,9.32
2022-08-25T12:38:28.223Z,9.30
2022-08-25T12:42:35.224Z,7.93
2022-08-25T12:46:39.348Z,6.35
2022-08-25T12:50:44.508Z,7.82
2022-08-25T12:54:59.471Z,5.97
2022-08-25T12:59:19.851Z,7.90
2022-08-25T13:03:54.018Z,6.75
2022-08-25T13:07:59.871Z,8.57
2022-08-25T13:12:31.125Z,7.53
2022-08-25T13:16:33.945Z,8.68
2022-08-25T13:20:35.898Z,8.13
2022-08-25T13:24:42.240Z,7.97
2022-08-25T13:28:50.590Z,5.80
2022-08-25T13:32:52.441Z,5.38
2022-08-25T13:37:12.744Z,5.65
2022-08-25T13:41:29.444Z,5.45
2022-08-25T13:45:41.061Z,5.55
2022-08-25T13:49:47.895Z,8.23
2022-08-25T13:54:02.754Z,7.43
2022-08-25T13:58:07.056Z,6.50
2022-08-25T14:02:39.062Z,7.97
2022-08-25T14:06:41.334Z,9.50
2022-08-25T14:10:44.781Z,8.27
2022-08-25T14:15:18.027Z,8.40
2022-08-25T14:19:23.298Z,6.72
2022-08-25T14:23:28.714Z,5.82
2022-08-25T14:27:30.461Z,6.60
2022-08-25T14:31:36.226Z,7.47
2022-08-25T14:35:38.187Z,8.75
2022-08-25T14:39:40.466Z,5.72
2022-08-25T14:43:45.982Z,8.20
2022-08-25T14:47:49.889Z,7.47
2022-08-25T14:51:52.233Z,7.18
2022-08-25T14:55:58.856Z,6.00
2022-08-25T15:00:01.330Z,6.20
2022-08-25T15:04:19.489Z,6.85
2022-08-25T15:08:39.764Z,5.63
2022-08-25T15:12:47.764Z,6.10
2022-08-25T15:16:57.427Z,7.07
2022-08-25T15:20:59.262Z,5.60
2022-08-25T15:25:01.841Z,7.80
2022-08-25T15:29:04.085Z,7.90
2022-08-25T15:33:05.798Z,6.35
2022-08-25T15:37:15.268Z,5.63
2022-08-25T15:41:17.048Z,7.55
2022-08-25T15:45:19.097Z,6.72
2022-08-25T15:49:23.443Z,8.63
2022-08-25T15:53:26.238Z,8.23
2022-08-25T15:57:28.760Z,10.25
2022-08-25T16:01:30.769Z,6.65
2022-08-25T16:05:32.641Z,6.68
2022-08-25T16:09:35.844Z,5.35
2022-08-25T16:13:37.906Z,5.97
2022-08-25T16:17:46.941Z,6.65
2022-08-25T16:21:48.825Z,8.88
2022-08-25T16:25:52.505Z,5.80
2022-08-25T16:29:54.262Z,11.27
2022-08-25T16:33:58.266Z,12.45
2022-08-25T16:38:10.200Z,9.75
2022-08-25T16:42:14.188Z,8.10
2022-08-25T16:46:17.869Z,7.00
2022-08-25T16:50:19.649Z,8.48
2022-08-25T16:54:40.499Z,8.68
2022-08-25T16:58:42.244Z,7.97
2022-08-25T17:02:51.410Z,15.57
2022-08-25T17:06:53.084Z,9.45
2022-08-25T17:11:14.958Z,12.25
2022-08-25T17:15:22.334Z,7.82
2022-08-25T17:19:27.773Z,14.98
2022-08-25T17:23:29.739Z,8.70
2022-08-25T17:27:31.524Z,14.27
2022-08-25T17:31:35.149Z,10.45
2022-08-25T17:35:42.525Z,8.32
2022-08-25T17:39:44.266Z,14.38
2022-08-25T17:43:47.698Z,15.65
2022-08-25T17:47:50.684Z,9.15
2022-08-25T17:51:52.539Z,12.68
2022-08-25T17:56:07.404Z,8.60
2022-08-25T18:00:12.058Z,11.68
2022-08-25T18:04:17.958Z,17.67
2022-08-25T18:08:22.340Z,11.80
2022-08-25T18:12:34.145Z,12.73
2022-08-25T18:16:35.868Z,11.32
2022-08-25T18:20:37.634Z,13.68
2022-08-25T18:24:39.993Z,9.35
2022-08-25T18:28:43.735Z,12.00
2022-08-25T18:32:45.784Z,8.70
2022-08-25T18:36:47.835Z,11.43
2022-08-25T18:40:55.732Z,11.02
2022-08-25T18:44:57.449Z,13.10
2022-08-25T18:49:00.627Z,11.68
2022-08-25T18:53:02.698Z,12.55
2022-08-25T18:57:08.738Z,14.70
2022-08-25T19:01:14.011Z,16.15
2022-08-25T19:05:17.368Z,16.92
2022-08-25T19:09:19.058Z,17.25
2022-08-25T19:13:22.611Z,16.92
2022-08-25T19:17:24.878Z,14.80
2022-08-25T19:21:26.630Z,16.88
2022-08-25T19:25:33.227Z,11.45
2022-08-25T19:29:36.447Z,11.00
2022-08-25T19:33:45.061Z,11.88
2022-08-25T19:37:47.385Z,17.35
2022-08-25T19:41:49.738Z,16.80
2022-08-25T19:45:51.715Z,14.80
2022-08-25T19:53:57.988Z,14.00
2022-08-25T19:58:00.861Z,12.10
2022-08-25T20:02:03.868Z,16.02
2022-08-25T20:06:05.809Z,14.90
2022-08-25T20:10:14.206Z,20.90
2022-08-25T20:14:16.252Z,12.95
2022-08-25T20:18:18.719Z,10.68
2022-08-25T20:22:25.893Z,18.38
2022-08-25T20:26:29.253Z,17.52
2022-08-25T20:30:31.035Z,13.10
2022-08-25T20:34:33.027Z,13.02
2022-08-25T20:38:35.642Z,13.15
2022-08-25T20:42:37.507Z,19.30
2022-08-25T20:46:42.556Z,12.82
2022-08-25T20:50:44.325Z,17.25
2022-08-25T20:54:49.625Z,13.00
2022-08-25T20:58:52.341Z,12.48
2022-08-25T21:02:54.172Z,15.25
2022-08-25T21:06:57.626Z,12.40
2022-08-25T21:10:59.341Z,15.38
2022-08-25T21:15:01.091Z,10.52
2022-08-25T21:19:03.213Z,14.02
2022-08-25T21:23:08.040Z,16.67
2022-08-25T21:27:10.484Z,13.35
2022-08-25T21:31:13.797Z,14.90
2022-08-25T21:35:15.845Z,14.63
2022-08-25T21:39:17.791Z,14.82
2022-08-25T21:43:19.745Z,15.15
2022-08-25T21:47:23.203Z,18.92
2022-08-25T21:51:30.806Z,12.40
2022-08-25T21:55:41.832Z,16.67
2022-08-25T21:59:43.906Z,18.48
2022-08-25T22:03:47.203Z,16.10
2022-08-25T22:07:49.056Z,11.95
2022-08-25T22:11:51.323Z,15.15
2022-08-25T22:15:53.369Z,12.88
2022-08-25T22:19:55.711Z,18.23
2022-08-25T22:23:57.567Z,18.40
2022-08-25T22:27:59.537Z,18.02
2022-08-25T22:32:02.840Z,12.30
2022-08-25T22:36:16.040Z,14.15
2022-08-25T22:40:18.476Z,15.82
2022-08-25T22:44:20.256Z,16.80
2022-08-25T22:48:21.962Z,17.15
2022-08-25T22:52:32.021Z,18.63
2022-08-25T22:56:37.713Z,12.05
2022-08-25T23:00:40.282Z,11.63
2022-08-25T23:04:44.618Z,16.52
2022-08-25T23:08:47.962Z,13.43
2022-08-25T23:12:49.707Z,17.15
2022-08-25T23:16:51.481Z,13.38
2022-08-25T23:21:11.982Z,14.93
2022-08-25T23:25:17.305Z,13.48
2022-08-25T23:29:19.518Z,18.10
2022-08-25T23:33:21.447Z,17.23
2022-08-25T23:37:23.138Z,18.80
2022-08-25T23:41:26.201Z,17.10
2022-08-25T23:45:28.295Z,16.20
2022-08-25T23:49:32.917Z,15.07
2022-08-25T23:53:35.782Z,15.13
2022-08-25T23:57:37.526Z,18.10
